sensor_id;sensor_type;location;lat;lon;timestamp;temperature;humidity
30893;DHT22;17595;50.884;4.346;2023-07-31T00:01:21;19.20;99.90
30893;DHT22;17595;50.884;4.346;2023-07-31T00:03:46;19.30;99.90
30893;DHT22;17595;50.884;4.346;2023-07-31T00:06:12;19.30;99.90
30893;DHT22;17595;50.884;4.346;2023-07-31T00:08:38;19.40;99.90
30893;DHT22;17595;50.884;4.346;2023-07-31T00:11:03;19.40;99.90
30893;DHT22;17595;50.884;4.346;2023-07-31T00:13:29;19.40;99.90
30893;DHT22;17595;50.884;4.346;2023-07-31T00:15:55;19.50;99.90
30893;DHT22;17595;50.884;4.346;2023-07-31T00:18:20;19.50;99.90
30893;DHT22;17595;50.884;4.346;2023-07-31T00:20:46;19.60;99.90
30893;DHT22;17595;50.884;4.346;2023-07-31T00:23:11;19.60;99.90
30893;DHT22;17595;50.884;4.346;2023-07-31T00:25:37;19.60;99.90
30893;DHT22;17595;50.884;4.346;2023-07-31T00:28:03;19.60;99.90
30893;DHT22;17595;50.884;4.346;2023-07-31T00:30:28;19.60;99.90
30893;DHT22;17595;50.884;4.346;2023-07-31T00:32:54;19.60;99.90
30893;DHT22;17595;50.884;4.346;2023-07-31T00:35:20;19.50;99.90
30893;DHT22;17595;50.884;4.346;2023-07-31T00:37:45;19.60;99.90
30893;DHT22;17595;50.884;4.346;2023-07-31T00:40:11;19.60;99.90
30893;DHT22;17595;50.884;4.346;2023-07-31T00:42:37;19.70;99.90
30893;DHT22;17595;50.884;4.346;2023-07-31T00:45:02;19.60;99.90
30893;DHT22;17595;50.884;4.346;2023-07-31T00:47:28;19.70;99.90
30893;DHT22;17595;50.884;4.346;2023-07-31T00:49:54;19.80;99.90
30893;DHT22;17595;50.884;4.346;2023-07-31T00:52:20;19.90;99.90
30893;DHT22;17595;50.884;4.346;2023-07-31T00:54:46;19.90;99.90
30893;DHT22;17595;50.884;4.346;2023-07-31T00:57:11;19.80;99.90
30893;DHT22;17595;50.884;4.346;2023-07-31T00:59:37;19.80;99.90
30893;DHT22;17595;50.884;4.346;2023-07-31T01:02:03;19.80;99.90
30893;DHT22;17595;50.884;4.346;2023-07-31T01:04:29;19.80;99.90
30893;DHT22;17595;50.884;4.346;2023-07-31T01:12:07;19.40;99.90
30893;DHT22;17595;50.884;4.346;2023-07-31T01:14:34;19.40;99.90
30893;DHT22;17595;50.884;4.346;2023-07-31T01:17:00;19.50;99.90
30893;DHT22;17595;50.884;4.346;2023-07-31T01:19:26;19.60;99.90
30893;DHT22;17595;50.884;4.346;2023-07-31T01:22:38;19.60;99.90
30893;DHT22;17595;50.884;4.346;2023-07-31T01:25:06;19.60;99.90
30893;DHT22;17595;50.884;4.346;2023-07-31T01:27:46;19.50;99.90
30893;DHT22;17595;50.884;4.346;2023-07-31T01:30:17;19.50;99.90
30893;DHT22;17595;50.884;4.346;2023-07-31T01:32:47;19.50;99.90
30893;DHT22;17595;50.884;4.346;2023-07-31T01:35:13;19.40;99.90
30893;DHT22;17595;50.884;4.346;2023-07-31T01:37:38;19.50;99.90
30893;DHT22;17595;50.884;4.346;2023-07-31T01:40:05;19.40;99.90
30893;DHT22;17595;50.884;4.346;2023-07-31T01:42:31;19.50;99.90
30893;DHT22;17595;50.884;4.346;2023-07-31T01:44:57;19.60;99.90
30893;DHT22;17595;50.884;4.346;2023-07-31T01:47:22;19.60;99.90
30893;DHT22;17595;50.884;4.346;2023-07-31T01:49:49;19.60;99.90
30893;DHT22;17595;50.884;4.346;2023-07-31T01:52:14;19.60;99.90
30893;DHT22;17595;50.884;4.346;2023-07-31T01:54:40;19.60;99.90
30893;DHT22;17595;50.884;4.346;2023-07-31T01:57:06;19.70;99.90
30893;DHT22;17595;50.884;4.346;2023-07-31T01:59:31;19.70;99.90
30893;DHT22;17595;50.884;4.346;2023-07-31T02:01:57;19.60;99.90
30893;DHT22;17595;50.884;4.346;2023-07-31T02:04:23;19.60;99.90
30893;DHT22;17595;50.884;4.346;2023-07-31T02:06:48;19.70;99.90
30893;DHT22;17595;50.884;4.346;2023-07-31T02:09:14;19.80;99.90
30893;DHT22;17595;50.884;4.346;2023-07-31T02:11:39;19.70;99.90
30893;DHT22;17595;50.884;4.346;2023-07-31T02:14:05;19.60;99.90
30893;DHT22;17595;50.884;4.346;2023-07-31T02:16:30;19.70;99.90
30893;DHT22;17595;50.884;4.346;2023-07-31T02:18:56;19.90;99.90
30893;DHT22;17595;50.884;4.346;2023-07-31T02:21:21;19.80;99.90
30893;DHT22;17595;50.884;4.346;2023-07-31T02:23:47;19.90;99.90
30893;DHT22;17595;50.884;4.346;2023-07-31T02:26:13;19.90;99.90
30893;DHT22;17595;50.884;4.346;2023-07-31T02:28:38;19.90;99.90
30893;DHT22;17595;50.884;4.346;2023-07-31T02:31:04;20.00;99.90
30893;DHT22;17595;50.884;4.346;2023-07-31T02:33:29;20.00;99.90
30893;DHT22;17595;50.884;4.346;2023-07-31T02:35:55;20.00;99.90
30893;DHT22;17595;50.884;4.346;2023-07-31T02:38:21;19.90;99.90
30893;DHT22;17595;50.884;4.346;2023-07-31T02:40:46;20.00;99.90
30893;DHT22;17595;50.884;4.346;2023-07-31T02:43:13;19.90;99.90
30893;DHT22;17595;50.884;4.346;2023-07-31T02:45:39;19.80;99.90
30893;DHT22;17595;50.884;4.346;2023-07-31T02:48:04;19.90;99.90
30893;DHT22;17595;50.884;4.346;2023-07-31T02:50:30;19.80;99.90
30893;DHT22;17595;50.884;4.346;2023-07-31T02:52:57;19.80;99.90
30893;DHT22;17595;50.884;4.346;2023-07-31T02:55:23;19.90;99.90
30893;DHT22;17595;50.884;4.346;2023-07-31T02:57:48;20.00;99.90
30893;DHT22;17595;50.884;4.346;2023-07-31T03:00:14;20.00;99.90
30893;DHT22;17595;50.884;4.346;2023-07-31T03:02:39;19.80;99.90
30893;DHT22;17595;50.884;4.346;2023-07-31T03:05:05;19.90;99.90
30893;DHT22;17595;50.884;4.346;2023-07-31T03:07:31;19.80;99.90
30893;DHT22;17595;50.884;4.346;2023-07-31T03:09:56;20.00;99.90
30893;DHT22;17595;50.884;4.346;2023-07-31T03:12:23;19.90;99.90
30893;DHT22;17595;50.884;4.346;2023-07-31T03:14:48;20.00;99.90
30893;DHT22;17595;50.884;4.346;2023-07-31T03:17:15;19.90;99.90
30893;DHT22;17595;50.884;4.346;2023-07-31T03:19:40;20.00;99.90
30893;DHT22;17595;50.884;4.346;2023-07-31T03:22:06;20.00;99.90
30893;DHT22;17595;50.884;4.346;2023-07-31T03:24:31;19.80;99.90
30893;DHT22;17595;50.884;4.346;2023-07-31T03:26:57;19.80;99.90
30893;DHT22;17595;50.884;4.346;2023-07-31T03:29:22;19.80;99.90
30893;DHT22;17595;50.884;4.346;2023-07-31T03:31:48;19.90;99.90
30893;DHT22;17595;50.884;4.346;2023-07-31T03:34:13;19.80;99.90
30893;DHT22;17595;50.884;4.346;2023-07-31T03:36:39;19.80;99.90
30893;DHT22;17595;50.884;4.346;2023-07-31T03:39:05;19.90;99.90
30893;DHT22;17595;50.884;4.346;2023-07-31T03:41:30;19.80;99.90
30893;DHT22;17595;50.884;4.346;2023-07-31T03:43:56;19.80;99.90
30893;DHT22;17595;50.884;4.346;2023-07-31T03:46:22;19.70;99.90
30893;DHT22;17595;50.884;4.346;2023-07-31T03:48:48;19.80;99.90
30893;DHT22;17595;50.884;4.346;2023-07-31T03:51:14;19.60;99.90
30893;DHT22;17595;50.884;4.346;2023-07-31T03:53:40;19.80;99.90
30893;DHT22;17595;50.884;4.346;2023-07-31T03:56:06;19.80;99.90
30893;DHT22;17595;50.884;4.346;2023-07-31T03:58:32;19.80;99.90
30893;DHT22;17595;50.884;4.346;2023-07-31T04:00:57;19.80;99.90
30893;DHT22;17595;50.884;4.346;2023-07-31T04:03:23;19.70;99.90
30893;DHT22;17595;50.884;4.346;2023-07-31T04:05:48;19.70;99.90
30893;DHT22;17595;50.884;4.346;2023-07-31T04:08:14;19.60;99.90
30893;DHT22;17595;50.884;4.346;2023-07-31T04:10:39;19.70;99.90
30893;DHT22;17595;50.884;4.346;2023-07-31T04:13:05;19.70;99.90
30893;DHT22;17595;50.884;4.346;2023-07-31T04:15:30;19.70;99.90
30893;DHT22;17595;50.884;4.346;2023-07-31T04:17:56;19.60;99.90
30893;DHT22;17595;50.884;4.346;2023-07-31T04:20:22;19.60;99.90
30893;DHT22;17595;50.884;4.346;2023-07-31T04:22:48;19.60;99.90
30893;DHT22;17595;50.884;4.346;2023-07-31T04:25:13;19.60;99.90
30893;DHT22;17595;50.884;4.346;2023-07-31T04:27:40;19.70;99.90
30893;DHT22;17595;50.884;4.346;2023-07-31T04:30:06;19.70;99.90
30893;DHT22;17595;50.884;4.346;2023-07-31T04:32:31;19.70;99.90
30893;DHT22;17595;50.884;4.346;2023-07-31T04:34:57;19.80;99.90
30893;DHT22;17595;50.884;4.346;2023-07-31T04:37:23;19.80;99.90
30893;DHT22;17595;50.884;4.346;2023-07-31T04:39:48;19.80;99.90
30893;DHT22;17595;50.884;4.346;2023-07-31T04:42:14;19.70;99.90
30893;DHT22;17595;50.884;4.346;2023-07-31T04:44:39;19.70;99.90
30893;DHT22;17595;50.884;4.346;2023-07-31T04:47:05;19.70;99.90
30893;DHT22;17595;50.884;4.346;2023-07-31T04:49:32;19.70;99.90
30893;DHT22;17595;50.884;4.346;2023-07-31T04:51:57;19.60;99.90
30893;DHT22;17595;50.884;4.346;2023-07-31T04:54:23;19.60;99.90
30893;DHT22;17595;50.884;4.346;2023-07-31T04:56:48;19.70;99.90
30893;DHT22;17595;50.884;4.346;2023-07-31T04:59:14;19.60;99.90
30893;DHT22;17595;50.884;4.346;2023-07-31T05:01:40;19.50;99.90
30893;DHT22;17595;50.884;4.346;2023-07-31T05:04:05;19.60;99.90
30893;DHT22;17595;50.884;4.346;2023-07-31T05:06:31;19.60;99.90
30893;DHT22;17595;50.884;4.346;2023-07-31T05:08:56;19.70;99.90
30893;DHT22;17595;50.884;4.346;2023-07-31T05:11:22;19.70;99.90
30893;DHT22;17595;50.884;4.346;2023-07-31T05:13:47;19.50;99.90
30893;DHT22;17595;50.884;4.346;2023-07-31T05:16:13;19.50;99.90
30893;DHT22;17595;50.884;4.346;2023-07-31T05:18:39;19.40;99.90
30893;DHT22;17595;50.884;4.346;2023-07-31T05:21:05;19.40;99.90
30893;DHT22;17595;50.884;4.346;2023-07-31T05:23:30;19.60;99.90
30893;DHT22;17595;50.884;4.346;2023-07-31T05:26:07;19.60;99.90
30893;DHT22;17595;50.884;4.346;2023-07-31T05:28:35;19.50;99.90
30893;DHT22;17595;50.884;4.346;2023-07-31T05:31:02;19.40;99.90
30893;DHT22;17595;50.884;4.346;2023-07-31T05:33:28;19.40;99.90
30893;DHT22;17595;50.884;4.346;2023-07-31T05:35:54;19.40;99.90
30893;DHT22;17595;50.884;4.346;2023-07-31T05:38:19;19.40;99.90
30893;DHT22;17595;50.884;4.346;2023-07-31T05:40:45;19.30;99.90
30893;DHT22;17595;50.884;4.346;2023-07-31T05:43:10;19.50;99.90
30893;DHT22;17595;50.884;4.346;2023-07-31T05:45:36;19.50;99.90
30893;DHT22;17595;50.884;4.346;2023-07-31T05:48:02;19.40;99.90
30893;DHT22;17595;50.884;4.346;2023-07-31T05:50:28;19.40;99.90
30893;DHT22;17595;50.884;4.346;2023-07-31T05:52:54;19.40;99.90
30893;DHT22;17595;50.884;4.346;2023-07-31T05:55:19;19.40;99.90
30893;DHT22;17595;50.884;4.346;2023-07-31T05:57:46;19.30;99.90
30893;DHT22;17595;50.884;4.346;2023-07-31T06:00:12;19.50;99.90
30893;DHT22;17595;50.884;4.346;2023-07-31T06:02:38;19.50;99.90
30893;DHT22;17595;50.884;4.346;2023-07-31T06:05:04;19.40;99.90
30893;DHT22;17595;50.884;4.346;2023-07-31T06:07:31;19.50;99.90
30893;DHT22;17595;50.884;4.346;2023-07-31T06:09:57;19.50;99.90
30893;DHT22;17595;50.884;4.346;2023-07-31T06:12:28;19.60;99.90
30893;DHT22;17595;50.884;4.346;2023-07-31T06:14:54;19.60;99.90
30893;DHT22;17595;50.884;4.346;2023-07-31T06:17:19;19.50;99.90
30893;DHT22;17595;50.884;4.346;2023-07-31T06:19:45;19.50;99.90
30893;DHT22;17595;50.884;4.346;2023-07-31T06:22:10;19.50;99.90
30893;DHT22;17595;50.884;4.346;2023-07-31T06:24:36;19.40;99.90
30893;DHT22;17595;50.884;4.346;2023-07-31T06:27:02;19.50;99.90
30893;DHT22;17595;50.884;4.346;2023-07-31T06:29:29;19.60;99.90
30893;DHT22;17595;50.884;4.346;2023-07-31T06:31:55;19.50;99.90
30893;DHT22;17595;50.884;4.346;2023-07-31T06:34:21;19.70;99.90
30893;DHT22;17595;50.884;4.346;2023-07-31T06:36:46;19.70;99.90
30893;DHT22;17595;50.884;4.346;2023-07-31T06:39:12;19.70;99.90
30893;DHT22;17595;50.884;4.346;2023-07-31T06:41:38;19.90;99.90
30893;DHT22;17595;50.884;4.346;2023-07-31T06:44:04;20.00;99.90
30893;DHT22;17595;50.884;4.346;2023-07-31T06:46:30;20.00;99.90
30893;DHT22;17595;50.884;4.346;2023-07-31T06:48:56;20.00;99.90
30893;DHT22;17595;50.884;4.346;2023-07-31T06:51:21;20.00;99.90
30893;DHT22;17595;50.884;4.346;2023-07-31T06:53:47;20.10;99.90
30893;DHT22;17595;50.884;4.346;2023-07-31T06:56:12;20.10;99.90
30893;DHT22;17595;50.884;4.346;2023-07-31T06:58:39;20.10;99.90
30893;DHT22;17595;50.884;4.346;2023-07-31T07:01:05;20.10;99.90
30893;DHT22;17595;50.884;4.346;2023-07-31T07:03:32;20.20;99.90
30893;DHT22;17595;50.884;4.346;2023-07-31T07:05:58;20.40;99.90
30893;DHT22;17595;50.884;4.346;2023-07-31T07:08:24;20.40;99.90
30893;DHT22;17595;50.884;4.346;2023-07-31T07:10:50;20.40;99.90
30893;DHT22;17595;50.884;4.346;2023-07-31T07:13:15;20.50;99.90
30893;DHT22;17595;50.884;4.346;2023-07-31T07:15:41;20.70;99.90
30893;DHT22;17595;50.884;4.346;2023-07-31T07:18:07;20.60;99.90
30893;DHT22;17595;50.884;4.346;2023-07-31T07:20:32;20.60;99.90
30893;DHT22;17595;50.884;4.346;2023-07-31T07:22:58;20.60;99.90
30893;DHT22;17595;50.884;4.346;2023-07-31T07:25:24;20.80;99.90
30893;DHT22;17595;50.884;4.346;2023-07-31T07:27:49;20.70;99.90
30893;DHT22;17595;50.884;4.346;2023-07-31T07:30:15;20.80;99.90
30893;DHT22;17595;50.884;4.346;2023-07-31T07:32:40;20.90;99.90
30893;DHT22;17595;50.884;4.346;2023-07-31T07:35:07;20.80;99.90
30893;DHT22;17595;50.884;4.346;2023-07-31T07:37:32;20.70;99.90
30893;DHT22;17595;50.884;4.346;2023-07-31T07:39:58;20.90;99.90
30893;DHT22;17595;50.884;4.346;2023-07-31T07:42:23;21.00;99.90
30893;DHT22;17595;50.884;4.346;2023-07-31T07:44:49;20.90;99.90
30893;DHT22;17595;50.884;4.346;2023-07-31T07:47:15;20.90;99.90
30893;DHT22;17595;50.884;4.346;2023-07-31T07:49:40;20.90;99.90
30893;DHT22;17595;50.884;4.346;2023-07-31T07:52:06;21.00;99.90
30893;DHT22;17595;50.884;4.346;2023-07-31T07:54:32;21.10;99.90
30893;DHT22;17595;50.884;4.346;2023-07-31T07:56:57;21.20;99.90
30893;DHT22;17595;50.884;4.346;2023-07-31T07:59:23;21.00;99.90
30893;DHT22;17595;50.884;4.346;2023-07-31T08:01:49;20.70;99.90
30893;DHT22;17595;50.884;4.346;2023-07-31T08:04:14;20.70;99.90
30893;DHT22;17595;50.884;4.346;2023-07-31T08:06:40;20.90;99.90
30893;DHT22;17595;50.884;4.346;2023-07-31T08:09:06;20.70;99.90
30893;DHT22;17595;50.884;4.346;2023-07-31T08:11:32;20.90;99.90
30893;DHT22;17595;50.884;4.346;2023-07-31T08:13:58;21.00;99.90
30893;DHT22;17595;50.884;4.346;2023-07-31T08:16:24;21.20;99.90
30893;DHT22;17595;50.884;4.346;2023-07-31T08:18:49;21.30;99.90
30893;DHT22;17595;50.884;4.346;2023-07-31T08:21:15;21.30;99.90
30893;DHT22;17595;50.884;4.346;2023-07-31T08:23:41;21.30;99.90
30893;DHT22;17595;50.884;4.346;2023-07-31T08:26:06;21.40;99.90
30893;DHT22;17595;50.884;4.346;2023-07-31T08:28:32;21.50;99.90
30893;DHT22;17595;50.884;4.346;2023-07-31T08:30:58;21.50;99.90
30893;DHT22;17595;50.884;4.346;2023-07-31T08:33:23;21.50;99.90
30893;DHT22;17595;50.884;4.346;2023-07-31T08:35:49;21.60;99.90
30893;DHT22;17595;50.884;4.346;2023-07-31T08:38:15;21.60;99.90
30893;DHT22;17595;50.884;4.346;2023-07-31T08:40:40;21.60;99.90
30893;DHT22;17595;50.884;4.346;2023-07-31T08:43:08;21.60;99.90
30893;DHT22;17595;50.884;4.346;2023-07-31T08:45:34;21.50;99.90
30893;DHT22;17595;50.884;4.346;2023-07-31T08:48:00;21.40;99.90
30893;DHT22;17595;50.884;4.346;2023-07-31T08:50:25;21.40;99.90
30893;DHT22;17595;50.884;4.346;2023-07-31T08:52:52;21.40;99.90
30893;DHT22;17595;50.884;4.346;2023-07-31T08:55:18;21.40;99.90
30893;DHT22;17595;50.884;4.346;2023-07-31T08:57:51;21.40;99.90
30893;DHT22;17595;50.884;4.346;2023-07-31T09:00:18;21.20;99.90
30893;DHT22;17595;50.884;4.346;2023-07-31T09:02:46;21.40;99.90
30893;DHT22;17595;50.884;4.346;2023-07-31T09:05:14;21.50;99.90
30893;DHT22;17595;50.884;4.346;2023-07-31T09:07:43;21.60;99.90
30893;DHT22;17595;50.884;4.346;2023-07-31T09:10:11;21.60;99.90
30893;DHT22;17595;50.884;4.346;2023-07-31T09:12:38;21.60;99.90
30893;DHT22;17595;50.884;4.346;2023-07-31T09:15:04;21.60;99.90
30893;DHT22;17595;50.884;4.346;2023-07-31T09:17:35;21.30;99.90
30893;DHT22;17595;50.884;4.346;2023-07-31T09:20:20;21.40;99.90
30893;DHT22;17595;50.884;4.346;2023-07-31T09:22:48;21.30;99.90
30893;DHT22;17595;50.884;4.346;2023-07-31T09:25:24;21.10;99.90
30893;DHT22;17595;50.884;4.346;2023-07-31T09:28:02;21.20;99.90
30893;DHT22;17595;50.884;4.346;2023-07-31T09:30:27;21.30;99.90
30893;DHT22;17595;50.884;4.346;2023-07-31T09:33:06;21.60;99.90
30893;DHT22;17595;50.884;4.346;2023-07-31T09:35:34;21.80;99.90
30893;DHT22;17595;50.884;4.346;2023-07-31T09:38:08;21.90;99.90
30893;DHT22;17595;50.884;4.346;2023-07-31T09:40:36;21.90;99.90
30893;DHT22;17595;50.884;4.346;2023-07-31T09:43:07;22.10;99.90
30893;DHT22;17595;50.884;4.346;2023-07-31T09:45:40;22.10;99.90
30893;DHT22;17595;50.884;4.346;2023-07-31T09:50:40;22.20;99.90
30893;DHT22;17595;50.884;4.346;2023-07-31T09:53:07;22.10;99.90
30893;DHT22;17595;50.884;4.346;2023-07-31T09:55:34;22.20;99.90
30893;DHT22;17595;50.884;4.346;2023-07-31T09:58:04;22.10;99.90
30893;DHT22;17595;50.884;4.346;2023-07-31T10:00:31;22.20;99.90
30893;DHT22;17595;50.884;4.346;2023-07-31T10:02:59;22.40;99.90
30893;DHT22;17595;50.884;4.346;2023-07-31T10:05:33;22.20;99.90
30893;DHT22;17595;50.884;4.346;2023-07-31T10:07:59;21.90;99.90
30893;DHT22;17595;50.884;4.346;2023-07-31T10:10:26;22.00;99.90
30893;DHT22;17595;50.884;4.346;2023-07-31T10:12:53;21.90;99.90
30893;DHT22;17595;50.884;4.346;2023-07-31T10:15:20;22.10;99.90
30893;DHT22;17595;50.884;4.346;2023-07-31T10:17:49;21.90;99.90
30893;DHT22;17595;50.884;4.346;2023-07-31T10:20:16;21.80;99.90
30893;DHT22;17595;50.884;4.346;2023-07-31T10:22:42;21.90;99.90
30893;DHT22;17595;50.884;4.346;2023-07-31T10:25:09;22.10;99.90
30893;DHT22;17595;50.884;4.346;2023-07-31T10:27:41;22.30;99.90
30893;DHT22;17595;50.884;4.346;2023-07-31T10:30:12;22.30;99.90
30893;DHT22;17595;50.884;4.346;2023-07-31T10:32:41;22.30;99.90
30893;DHT22;17595;50.884;4.346;2023-07-31T10:35:09;22.10;99.90
30893;DHT22;17595;50.884;4.346;2023-07-31T10:37:39;22.20;99.90
30893;DHT22;17595;50.884;4.346;2023-07-31T10:40:13;22.20;99.90
30893;DHT22;17595;50.884;4.346;2023-07-31T10:42:48;22.20;99.90
30893;DHT22;17595;50.884;4.346;2023-07-31T10:46:05;22.40;99.90
30893;DHT22;17595;50.884;4.346;2023-07-31T10:48:17;22.40;99.90
30893;DHT22;17595;50.884;4.346;2023-07-31T10:50:55;22.40;99.90
30893;DHT22;17595;50.884;4.346;2023-07-31T10:53:30;22.50;99.90
30893;DHT22;17595;50.884;4.346;2023-07-31T10:58:25;22.70;99.90
30893;DHT22;17595;50.884;4.346;2023-07-31T11:00:55;22.80;99.90
30893;DHT22;17595;50.884;4.346;2023-07-31T11:03:25;22.90;99.90
30893;DHT22;17595;50.884;4.346;2023-07-31T11:05:53;22.30;99.90
30893;DHT22;17595;50.884;4.346;2023-07-31T11:08:29;22.20;99.90
30893;DHT22;17595;50.884;4.346;2023-07-31T11:11:19;22.20;99.90
30893;DHT22;17595;50.884;4.346;2023-07-31T11:13:48;22.40;99.90
30893;DHT22;17595;50.884;4.346;2023-07-31T11:16:25;22.40;99.90
30893;DHT22;17595;50.884;4.346;2023-07-31T11:18:51;22.80;99.90
30893;DHT22;17595;50.884;4.346;2023-07-31T11:21:19;23.10;99.90
30893;DHT22;17595;50.884;4.346;2023-07-31T11:23:49;23.30;99.90
30893;DHT22;17595;50.884;4.346;2023-07-31T11:26:16;23.30;99.90
30893;DHT22;17595;50.884;4.346;2023-07-31T11:28:42;23.20;99.90
30893;DHT22;17595;50.884;4.346;2023-07-31T11:31:10;23.20;99.90
30893;DHT22;17595;50.884;4.346;2023-07-31T11:33:36;23.30;99.90
30893;DHT22;17595;50.884;4.346;2023-07-31T11:36:02;23.10;99.90
30893;DHT22;17595;50.884;4.346;2023-07-31T11:38:32;23.10;99.90
30893;DHT22;17595;50.884;4.346;2023-07-31T11:41:00;23.00;99.90
30893;DHT22;17595;50.884;4.346;2023-07-31T11:43:29;23.00;99.90
30893;DHT22;17595;50.884;4.346;2023-07-31T11:45:58;22.90;99.90
30893;DHT22;17595;50.884;4.346;2023-07-31T11:48:31;22.90;99.90
30893;DHT22;17595;50.884;4.346;2023-07-31T11:51:04;22.70;99.90
30893;DHT22;17595;50.884;4.346;2023-07-31T11:53:35;22.60;99.90
30893;DHT22;17595;50.884;4.346;2023-07-31T11:56:02;22.50;99.90
30893;DHT22;17595;50.884;4.346;2023-07-31T11:58:31;22.30;99.90
30893;DHT22;17595;50.884;4.346;2023-07-31T12:00:58;22.50;99.90
30893;DHT22;17595;50.884;4.346;2023-07-31T12:03:24;22.70;99.90
30893;DHT22;17595;50.884;4.346;2023-07-31T12:05:49;22.40;99.90
30893;DHT22;17595;50.884;4.346;2023-07-31T12:08:15;22.30;99.90
30893;DHT22;17595;50.884;4.346;2023-07-31T12:10:41;22.40;99.90
30893;DHT22;17595;50.884;4.346;2023-07-31T12:13:12;22.50;99.90
30893;DHT22;17595;50.884;4.346;2023-07-31T12:15:43;22.50;99.90
30893;DHT22;17595;50.884;4.346;2023-07-31T12:18:14;22.40;99.90
30893;DHT22;17595;50.884;4.346;2023-07-31T12:20:45;22.40;99.90
30893;DHT22;17595;50.884;4.346;2023-07-31T12:23:19;22.50;99.90
30893;DHT22;17595;50.884;4.346;2023-07-31T12:25:44;22.30;99.90
30893;DHT22;17595;50.884;4.346;2023-07-31T12:28:10;22.50;99.90
30893;DHT22;17595;50.884;4.346;2023-07-31T12:30:40;22.40;99.90
30893;DHT22;17595;50.884;4.346;2023-07-31T12:33:15;22.80;99.90
30893;DHT22;17595;50.884;4.346;2023-07-31T12:35:44;22.70;99.90
30893;DHT22;17595;50.884;4.346;2023-07-31T12:38:10;23.00;99.90
30893;DHT22;17595;50.884;4.346;2023-07-31T12:40:38;23.10;99.90
30893;DHT22;17595;50.884;4.346;2023-07-31T12:43:05;23.10;99.90
30893;DHT22;17595;50.884;4.346;2023-07-31T12:45:31;23.10;99.90
30893;DHT22;17595;50.884;4.346;2023-07-31T12:48:00;23.20;99.90
30893;DHT22;17595;50.884;4.346;2023-07-31T12:50:26;23.20;99.90
30893;DHT22;17595;50.884;4.346;2023-07-31T12:52:55;23.00;99.90
30893;DHT22;17595;50.884;4.346;2023-07-31T12:55:22;23.00;99.90
30893;DHT22;17595;50.884;4.346;2023-07-31T12:57:48;23.00;99.90
30893;DHT22;17595;50.884;4.346;2023-07-31T13:00:14;23.00;99.90
30893;DHT22;17595;50.884;4.346;2023-07-31T13:02:40;22.80;99.90
30893;DHT22;17595;50.884;4.346;2023-07-31T13:05:06;22.80;99.90
30893;DHT22;17595;50.884;4.346;2023-07-31T13:07:31;23.00;99.90
30893;DHT22;17595;50.884;4.346;2023-07-31T13:09:57;22.90;99.90
30893;DHT22;17595;50.884;4.346;2023-07-31T13:12:23;22.90;99.90
30893;DHT22;17595;50.884;4.346;2023-07-31T13:14:48;23.00;99.90
30893;DHT22;17595;50.884;4.346;2023-07-31T13:17:14;23.00;99.90
30893;DHT22;17595;50.884;4.346;2023-07-31T13:19:39;23.00;99.90
30893;DHT22;17595;50.884;4.346;2023-07-31T13:22:05;22.70;99.90
30893;DHT22;17595;50.884;4.346;2023-07-31T13:24:31;22.70;99.90
30893;DHT22;17595;50.884;4.346;2023-07-31T13:26:57;22.50;99.90
30893;DHT22;17595;50.884;4.346;2023-07-31T13:29:22;22.50;99.90
30893;DHT22;17595;50.884;4.346;2023-07-31T13:31:49;22.70;99.90
30893;DHT22;17595;50.884;4.346;2023-07-31T13:34:14;22.60;99.90
30893;DHT22;17595;50.884;4.346;2023-07-31T13:36:40;22.30;99.90
30893;DHT22;17595;50.884;4.346;2023-07-31T13:39:07;22.10;99.90
30893;DHT22;17595;50.884;4.346;2023-07-31T13:41:33;22.00;99.90
30893;DHT22;17595;50.884;4.346;2023-07-31T13:43:58;21.90;99.90
30893;DHT22;17595;50.884;4.346;2023-07-31T13:46:24;21.90;99.90
30893;DHT22;17595;50.884;4.346;2023-07-31T13:48:51;21.80;99.90
30893;DHT22;17595;50.884;4.346;2023-07-31T13:51:16;22.00;99.90
30893;DHT22;17595;50.884;4.346;2023-07-31T13:53:42;21.80;99.90
30893;DHT22;17595;50.884;4.346;2023-07-31T13:56:08;21.80;99.90
30893;DHT22;17595;50.884;4.346;2023-07-31T13:58:33;21.90;99.90
30893;DHT22;17595;50.884;4.346;2023-07-31T14:00:59;21.80;99.90
30893;DHT22;17595;50.884;4.346;2023-07-31T14:03:25;21.60;99.90
30893;DHT22;17595;50.884;4.346;2023-07-31T14:05:52;21.60;99.90
30893;DHT22;17595;50.884;4.346;2023-07-31T14:08:17;21.60;99.90
30893;DHT22;17595;50.884;4.346;2023-07-31T14:10:43;21.70;99.90
30893;DHT22;17595;50.884;4.346;2023-07-31T14:13:08;21.80;99.90
30893;DHT22;17595;50.884;4.346;2023-07-31T14:15:34;21.90;99.90
30893;DHT22;17595;50.884;4.346;2023-07-31T14:18:01;21.80;99.90
30893;DHT22;17595;50.884;4.346;2023-07-31T14:20:28;21.70;99.90
30893;DHT22;17595;50.884;4.346;2023-07-31T14:22:53;21.60;99.90
30893;DHT22;17595;50.884;4.346;2023-07-31T14:25:19;21.70;99.90
30893;DHT22;17595;50.884;4.346;2023-07-31T14:27:45;21.80;99.90
30893;DHT22;17595;50.884;4.346;2023-07-31T14:30:11;22.00;99.90
30893;DHT22;17595;50.884;4.346;2023-07-31T14:32:36;22.10;99.90
30893;DHT22;17595;50.884;4.346;2023-07-31T14:35:03;22.10;99.90
30893;DHT22;17595;50.884;4.346;2023-07-31T14:37:37;22.20;99.90
30893;DHT22;17595;50.884;4.346;2023-07-31T14:40:04;22.20;99.90
30893;DHT22;17595;50.884;4.346;2023-07-31T14:42:30;22.20;99.90
30893;DHT22;17595;50.884;4.346;2023-07-31T14:44:55;22.00;99.90
30893;DHT22;17595;50.884;4.346;2023-07-31T14:47:21;21.90;99.90
30893;DHT22;17595;50.884;4.346;2023-07-31T14:49:46;21.90;99.90
30893;DHT22;17595;50.884;4.346;2023-07-31T14:52:12;21.80;99.90
30893;DHT22;17595;50.884;4.346;2023-07-31T14:54:37;21.80;99.90
30893;DHT22;17595;50.884;4.346;2023-07-31T14:57:03;21.80;99.90
30893;DHT22;17595;50.884;4.346;2023-07-31T14:59:29;21.90;99.90
30893;DHT22;17595;50.884;4.346;2023-07-31T15:01:54;21.90;99.90
30893;DHT22;17595;50.884;4.346;2023-07-31T15:04:20;21.80;99.90
30893;DHT22;17595;50.884;4.346;2023-07-31T15:06:47;21.60;99.90
30893;DHT22;17595;50.884;4.346;2023-07-31T15:09:12;21.50;99.90
30893;DHT22;17595;50.884;4.346;2023-07-31T15:11:38;21.40;99.90
30893;DHT22;17595;50.884;4.346;2023-07-31T15:14:04;21.40;99.90
30893;DHT22;17595;50.884;4.346;2023-07-31T15:16:29;21.40;99.90
30893;DHT22;17595;50.884;4.346;2023-07-31T15:18:56;21.40;99.90
30893;DHT22;17595;50.884;4.346;2023-07-31T15:21:22;21.30;99.90
30893;DHT22;17595;50.884;4.346;2023-07-31T15:23:48;21.30;99.90
30893;DHT22;17595;50.884;4.346;2023-07-31T15:26:13;21.30;99.90
30893;DHT22;17595;50.884;4.346;2023-07-31T15:28:39;21.30;99.90
30893;DHT22;17595;50.884;4.346;2023-07-31T15:31:04;21.30;99.90
30893;DHT22;17595;50.884;4.346;2023-07-31T15:33:30;21.20;99.90
30893;DHT22;17595;50.884;4.346;2023-07-31T15:35:56;21.30;99.90
30893;DHT22;17595;50.884;4.346;2023-07-31T15:38:23;21.50;99.90